Flight Track Log - Related Links

Times and Time Zones

All times are in EDT time to prevent confusion due to time zone crossing. See the ENY2794 flight status page for this flight to view local times or setup timezone preferences in your user account.

Time Position Orientation Groundspeed Altitude Reporting Facility
EDT Latitude Longitude Course Direction KTS MPH feet Rate Location/Type
Wed 10:03:47 PM 32.8833 -97.0500 333° Northwest 163 188 900  Level Dallas / Fort Worth TRACON
Wed 10:04:59 PM 32.8333 -97.0667 196° South 216 249 3,200 1,955 Climbing Dallas / Fort Worth TRACON
Wed 10:05:59 PM 32.7667 -97.1000 203° Southwest 239 275 5,200 1,689 Climbing Dallas / Fort Worth TRACON
Wed 10:06:00 PM 33.1849 -96.7969 35° Northeast  Level Estimated
Wed 10:07:00 PM 33.2437 -96.9182 300° West  Level FlightAware Approximate
Wed 10:07:14 PM 32.8372 -97.1478 330° Northwest 277 319 7,000  Level Fort Worth Center
Wed 10:08:00 PM 33.3444 -97.0366 333° Northwest  Level FlightAware Approximate
Wed 10:08:15 PM 32.9111 -97.1442 North 272 313 8,900  Level Fort Worth Center
Wed 10:09:17 PM 32.9897 -97.1383 North 287 330 10,500 1,220 Climbing Fort Worth Center
Wed 10:10:18 PM 33.0825 -97.1317 North 313 360 11,400 829 Climbing Fort Worth Center
Wed 10:11:20 PM 33.1772 -97.1261 North 337 388 12,200 878 Climbing Fort Worth Center
Wed 10:12:21 PM 33.2764 -97.1208 North 355 409 13,200 976 Climbing Fort Worth Center
Wed 10:13:23 PM 33.3811 -97.1139 North 361 415 14,200 927 Climbing Fort Worth Center
Wed 10:14:24 PM 33.4825 -97.1056 North 364 419 15,100 976 Climbing Fort Worth Center
Wed 10:15:26 PM 33.5925 -97.0908 North 367 422 16,200 1,073 Climbing Fort Worth Center
Wed 10:16:27 PM 33.6956 -97.0769 North 370 426 17,300 1,220 Climbing Fort Worth Center
Wed 10:17:29 PM 33.7942 -97.0550 10° North 361 415 18,700 1,268 Climbing Fort Worth Center
Wed 10:18:30 PM 33.8778 -96.9978 30° Northeast 356 410 19,900 1,268 Climbing Fort Worth Center
Wed 10:19:32 PM 33.9636 -96.9428 28° Northeast 354 407 21,300 1,317 Climbing Fort Worth Center
Wed 10:20:33 PM 34.0500 -96.8872 28° Northeast 352 405 22,600 1,366 Climbing Fort Worth Center
Wed 10:21:35 PM 34.1414 -96.8278 28° Northeast 349 402 24,100 1,317 Climbing Fort Worth Center
Wed 10:22:36 PM 34.2247 -96.7744 28° Northeast 339 390 25,300 1,180 Climbing Fort Worth Center
Wed 10:23:37 PM 34.3089 -96.7208 28° Northeast 340 391 26,500 1,171 Climbing Fort Worth Center
Wed 10:24:39 PM 34.3919 -96.6636 30° Northeast 342 394 27,700 1,073 Climbing Fort Worth Center
Wed 10:25:40 PM 34.4747 -96.6111 28° Northeast 341 392 28,700 1,122 Climbing Fort Worth Center
Wed 10:26:42 PM 34.5744 -96.5456 28° Northeast 341 392 30,000 1,122 Climbing Fort Worth Center
Wed 10:27:43 PM 34.6575 -96.4900 29° Northeast 342 394 31,000 984 Climbing Fort Worth Center
Wed 10:28:44 PM 34.7403 -96.4353 29° Northeast 341 392 32,000 976 Climbing Fort Worth Center
Wed 10:29:46 PM 34.8239 -96.3808 28° Northeast 342 394 33,000 927 Climbing Fort Worth Center
Wed 10:30:47 PM 34.9075 -96.3281 27° Northeast 342 394 33,900 829 Climbing Fort Worth Center
Wed 10:31:49 PM 34.9911 -96.2719 29° Northeast 343 395 34,700 780 Climbing Fort Worth Center
Wed 10:32:50 PM 35.0742 -96.2169 28° Northeast 345 397 35,500 829 Climbing Fort Worth Center
Wed 10:33:52 PM 35.1747 -96.1511 28° Northeast 345 397 36,400 683 Climbing Fort Worth Center
Wed 10:34:53 PM 35.2594 -96.0956 28° Northeast 347 399 36,900 295 Climbing Fort Worth Center
Wed 10:35:54 PM 35.3453 -96.0367 29° Northeast 351 404 37,000 49 Climbing Fort Worth Center
Wed 10:36:56 PM 35.4378 -95.9758 28° Northeast 374 430 37,000  Level Fort Worth Center
Wed 10:37:57 PM 35.5336 -95.9111 29° Northeast 389 448 37,000  Level Fort Worth Center
Wed 10:38:58 PM 35.6303 -95.8481 28° Northeast 410 472 37,000  Level Fort Worth Center
Wed 10:40:08 PM 35.7533 -95.7619 30° Northeast 421 484 37,000  Level Kansas City Center
Wed 10:41:10 PM 35.8581 -95.6908 29° Northeast 426 490 37,000  Level Kansas City Center
Wed 10:42:11 PM 35.9633 -95.6194 29° Northeast 427 491 37,000  Level Kansas City Center
Wed 10:43:12 PM 36.0706 -95.5456 29° Northeast 427 491 37,000  Level Kansas City Center
Wed 10:44:13 PM 36.1739 -95.4747 29° Northeast 427 491 37,000  Level Kansas City Center
Wed 10:45:14 PM 36.2978 -95.3864 30° Northeast 428 493 37,000  Level Kansas City Center
Wed 10:46:16 PM 36.4022 -95.3158 29° Northeast 428 493 37,000  Level Kansas City Center
Wed 10:47:17 PM 36.5114 -95.2467 27° Northeast 435 501 37,000  Level Kansas City Center
Wed 10:48:18 PM 36.6064 -95.1775 30° Northeast 435 501 37,000 -49 Level Kansas City Center
Wed 10:49:19 PM 36.7108 -95.1061 29° Northeast 434 499 36,900  Descending Kansas City Center
Wed 10:50:20 PM 36.8383 -95.0158 30° Northeast 436 502 37,000 49 Climbing Kansas City Center
Wed 10:51:21 PM 36.9428 -94.9408 30° Northeast 435 501 37,000  Level Kansas City Center
Wed 10:52:23 PM 37.0494 -94.8656 29° Northeast 435 501 37,000  Level Kansas City Center
Wed 10:53:24 PM 37.1558 -94.7908 29° Northeast 436 502 37,000  Level Kansas City Center
Wed 10:54:25 PM 37.2642 -94.7200 27° Northeast 437 503 37,000  Level Kansas City Center
Wed 10:55:26 PM 37.3714 -94.6442 29° Northeast 440 506 37,000  Level Kansas City Center
Wed 10:56:27 PM 37.4767 -94.5644 31° Northeast 441 507 37,000  Level Kansas City Center
Wed 10:57:28 PM 37.5844 -94.4881 29° Northeast 443 510 37,000  Level Kansas City Center
Wed 10:58:29 PM 37.7006 -94.4069 29° Northeast 443 510 37,000  Level Kansas City Center
Wed 10:59:31 PM 37.8072 -94.3311 29° Northeast 440 506 37,000  Level Kansas City Center
Wed 11:00:32 PM 37.9153 -94.2514 30° Northeast 442 509 37,000  Level Kansas City Center
Wed 11:01:33 PM 38.0303 -94.1697 29° Northeast 449 517 37,000  Level Kansas City Center
Wed 11:02:34 PM 38.1333 -94.0953 30° Northeast 448 516 37,000  Level Kansas City Center
Wed 11:03:35 PM 38.2419 -94.0147 30° Northeast 448 516 37,000  Level Kansas City Center
Wed 11:04:36 PM 38.3500 -93.9369 29° Northeast 448 516 37,000  Level Kansas City Center
Wed 11:05:37 PM 38.4583 -93.8583 30° Northeast 448 516 37,000  Level Kansas City Center
Wed 11:06:38 PM 38.5650 -93.7781 30° Northeast 447 514 37,000  Level Kansas City Center
Wed 11:07:39 PM 38.6742 -93.6975 30° Northeast 448 516 37,000  Level Kansas City Center
Wed 11:08:41 PM 38.8050 -93.6006 30° Northeast 448 516 37,000  Level Kansas City Center
Wed 11:09:42 PM 38.9147 -93.5194 30° Northeast 448 516 37,000  Level Kansas City Center
Wed 11:10:43 PM 39.0189 -93.4408 30° Northeast 448 516 37,000  Level Kansas City Center
Wed 11:11:44 PM 39.1236 -93.3617 30° Northeast 453 521 37,000  Level Kansas City Center
Wed 11:12:45 PM 39.2317 -93.2786 31° Northeast 454 522 37,000  Level Kansas City Center
Wed 11:13:46 PM 39.3325 -93.1833 36° Northeast 460 529 37,000  Level Kansas City Center
Wed 11:14:47 PM 39.3947 -93.0439 60° Northeast 464 534 37,000 -443 Level Kansas City Center
Wed 11:15:48 PM 39.4650 -92.8644 63° Northeast 467 537 36,100 -934 Descending Kansas City Center
Wed 11:16:49 PM 39.5247 -92.7142 63° Northeast 475 547 35,100 -934 Descending Kansas City Center
Wed 11:17:50 PM 39.5814 -92.5692 63° Northeast 464 534 34,200 -934 Descending Kansas City Center
Wed 11:18:51 PM 39.6375 -92.4311 62° Northeast 450 518 33,200 -984 Descending Kansas City Center
Wed 11:19:52 PM 39.6911 -92.2936 63° Northeast 442 509 32,200 -984 Descending Kansas City Center
Wed 11:20:53 PM 39.7431 -92.1569 64° Northeast 434 499 31,200 -1,180 Descending Kansas City Center
Wed 11:21:54 PM 39.7986 -92.0158 63° Northeast 437 503 29,800 -1,574 Descending Kansas City Center
Wed 11:22:55 PM 39.8694 -91.8322 63° Northeast 468 539 28,000 -1,574 Descending Kansas City Center
Wed 11:23:56 PM 39.9286 -91.6783 63° Northeast 476 548 26,600 -1,415 Descending Kansas City Center
Wed 11:24:58 PM 39.9872 -91.5247 63° Northeast 478 550 25,100 -1,268 Descending Kansas City Center
Wed 11:25:59 PM 40.0458 -91.3731 63° Northeast 478 550 24,000 -787 Descending Kansas City Center
Wed 11:27:00 PM 40.1019 -91.2289 63° Northeast 460 529 23,500 -1,180 Descending Kansas City Center
Wed 11:28:01 PM 40.1536 -91.0842 65° Northeast 448 516 21,600 -1,967 Descending Kansas City Center
Wed 11:29:02 PM 40.2142 -90.9289 63° Northeast 450 518 19,500 -1,967 Descending Kansas City Center
Wed 11:30:03 PM 40.2697 -90.7931 62° Northeast 430 495 17,600 -1,918 Descending Kansas City Center
Wed 11:31:04 PM 40.3217 -90.6617 63° Northeast 413 475 15,600 -1,967 Descending Kansas City Center
Wed 11:32:05 PM 40.3614 -90.5278 69° East 401 461 13,600 -1,918 Descending Kansas City Center
Wed 11:33:06 PM 40.4072 -90.3997 65° Northeast 394 453 11,700 -1,328 Descending Kansas City Center
Wed 11:34:07 PM 40.4517 -90.2819 64° Northeast 368 423 10,900 -1,296 Descending Kansas City Center
Wed 11:35:11 PM 40.4950 -90.1594 65° Northeast 312 359 9,000 -1,680 Descending Chicago Center
Wed 11:36:12 PM 40.5306 -90.0611 65° Northeast 300 345 7,400 -1,525 Descending Chicago Center
Wed 11:37:13 PM 40.5539 -89.9661 72° East 288 331 5,900 -1,475 Descending Chicago Center
Wed 11:38:14 PM 40.5600 -89.8711 85° East 266 306 4,400 -1,488 Descending Chicago Center
Wed 11:39:14 PM 40.5678 -89.7800 84° East 259 298 2,900 -992 Descending Chicago Center
Wed 11:40:15 PM 40.5744 -89.6969 84° East 235 270 2,400 -492 Descending Chicago Center
Wed 11:41:16 PM 40.5986 -89.6478 57° Northeast 199 229 1,900 -639 Descending Chicago Center
Wed 11:42:17 PM 40.6450 -89.6625 346° North 165 190 1,100 -590 Descending Chicago Center
Wed 11:43:18 PM 40.6675 -89.7033 306° West 159 183 700 -393 Descending Chicago Center

Login

Don't have an account? Register now (free) for customized features, flight alerts, and more!